sensor_id;sensor_type;location;lat;lon;timestamp;pressure;altitude;pressure_sealevel;temperature;humidity
70921;BME280;58572;48.110;19.838;2023-04-25T00:00:10;96486.84;;;13.56;66.09
70921;BME280;58572;48.110;19.838;2023-04-25T00:02:37;96594.69;;;14.16;67.40
70921;BME280;58572;48.110;19.838;2023-04-25T00:05:05;96594.22;;;14.14;67.38
70921;BME280;58572;48.110;19.838;2023-04-25T00:07:33;96601.22;;;14.35;66.00
70921;BME280;58572;48.110;19.838;2023-04-25T00:10:03;96594.69;;;14.28;66.14
70921;BME280;58572;48.110;19.838;2023-04-25T00:12:30;96583.75;;;14.16;66.56
70921;BME280;58572;48.110;19.838;2023-04-25T00:14:59;96545.13;;;13.72;67.29
70921;BME280;58572;48.110;19.838;2023-04-25T00:17:26;96592.75;;;13.83;68.19
70921;BME280;58572;48.110;19.838;2023-04-25T00:19:53;96580.88;;;14.12;67.19
70921;BME280;58572;48.110;19.838;2023-04-25T00:22:21;96584.09;;;13.39;70.64
70921;BME280;58572;48.110;19.838;2023-04-25T00:24:48;96580.72;;;13.96;68.02
70921;BME280;58572;48.110;19.838;2023-04-25T00:27:17;96581.44;;;14.05;67.26
70921;BME280;58572;48.110;19.838;2023-04-25T00:29:44;96587.91;;;12.67;73.88
70921;BME280;58572;48.110;19.838;2023-04-25T00:32:11;96589.50;;;13.27;71.56
70921;BME280;58572;48.110;19.838;2023-04-25T00:34:38;96551.47;;;13.64;68.38
70921;BME280;58572;48.110;19.838;2023-04-25T00:37:06;96584.13;;;13.93;67.57
70921;BME280;58572;48.110;19.838;2023-04-25T00:39:34;96584.97;;;13.73;72.22
70921;BME280;58572;48.110;19.838;2023-04-25T00:42:02;96469.91;;;13.41;67.06
70921;BME280;58572;48.110;19.838;2023-04-25T00:44:31;96567.34;;;14.16;66.50
70921;BME280;58572;48.110;19.838;2023-04-25T00:46:59;96561.72;;;14.00;67.26
70921;BME280;58572;48.110;19.838;2023-04-25T00:49:27;96567.53;;;13.98;68.48
70921;BME280;58572;48.110;19.838;2023-04-25T00:51:54;96568.97;;;13.84;68.28
70921;BME280;58572;48.110;19.838;2023-04-25T00:54:22;96567.44;;;14.07;67.10
70921;BME280;58572;48.110;19.838;2023-04-25T00:56:49;96563.56;;;14.08;66.83
70921;BME280;58572;48.110;19.838;2023-04-25T00:59:17;96560.31;;;14.27;66.49
70921;BME280;58572;48.110;19.838;2023-04-25T01:01:46;96558.63;;;13.89;68.36
70921;BME280;58572;48.110;19.838;2023-04-25T01:04:13;96554.03;;;14.26;66.53
70921;BME280;58572;48.110;19.838;2023-04-25T01:06:41;96561.19;;;14.06;67.55
70921;BME280;58572;48.110;19.838;2023-04-25T01:09:08;96560.44;;;13.85;67.87
70921;BME280;58572;48.110;19.838;2023-04-25T01:11:36;96564.03;;;12.94;72.05
70921;BME280;58572;48.110;19.838;2023-04-25T01:14:03;96570.97;;;13.12;73.56
70921;BME280;58572;48.110;19.838;2023-04-25T01:16:32;96556.72;;;13.69;68.56
70921;BME280;58572;48.110;19.838;2023-04-25T01:19:01;96553.25;;;13.81;67.70
70921;BME280;58572;48.110;19.838;2023-04-25T01:21:30;96552.53;;;13.51;68.99
70921;BME280;58572;48.110;19.838;2023-04-25T01:23:57;96516.38;;;11.94;75.99
70921;BME280;58572;48.110;19.838;2023-04-25T01:26:25;96468.09;;;12.92;69.77
70921;BME280;58572;48.110;19.838;2023-04-25T01:28:53;96565.94;;;12.93;73.16
70921;BME280;58572;48.110;19.838;2023-04-25T01:31:20;96563.94;;;13.73;69.51
70921;BME280;58572;48.110;19.838;2023-04-25T01:33:47;96557.16;;;13.59;69.25
70921;BME280;58572;48.110;19.838;2023-04-25T01:36:15;96548.72;;;13.85;68.89
70921;BME280;58572;48.110;19.838;2023-04-25T01:38:44;96548.84;;;13.88;67.43
70921;BME280;58572;48.110;19.838;2023-04-25T01:41:13;96552.44;;;13.80;70.64
70921;BME280;58572;48.110;19.838;2023-04-25T01:43:40;96559.59;;;13.52;69.44
70921;BME280;58572;48.110;19.838;2023-04-25T01:46:07;96562.59;;;13.17;70.64
70921;BME280;58572;48.110;19.838;2023-04-25T01:48:35;96554.63;;;13.54;71.41
70921;BME280;58572;48.110;19.838;2023-04-25T01:51:02;96569.59;;;11.66;79.20
70921;BME280;58572;48.110;19.838;2023-04-25T01:53:29;96568.19;;;12.24;76.51
70921;BME280;58572;48.110;19.838;2023-04-25T01:55:58;96560.47;;;13.43;70.02
70921;BME280;58572;48.110;19.838;2023-04-25T01:58:25;96550.81;;;13.25;70.33
70921;BME280;58572;48.110;19.838;2023-04-25T02:00:52;96482.97;;;12.94;71.02
70921;BME280;58572;48.110;19.838;2023-04-25T02:03:19;96561.97;;;13.11;71.28
70921;BME280;58572;48.110;19.838;2023-04-25T02:05:47;96549.31;;;12.19;76.35
70921;BME280;58572;48.110;19.838;2023-04-25T02:08:14;96405.00;;;12.01;71.92
70921;BME280;58572;48.110;19.838;2023-04-25T02:10:41;96552.63;;;13.21;69.92
70921;BME280;58572;48.110;19.838;2023-04-25T02:13:10;96560.72;;;13.09;72.05
70921;BME280;58572;48.110;19.838;2023-04-25T02:15:37;96554.88;;;13.40;70.30
70921;BME280;58572;48.110;19.838;2023-04-25T02:18:04;96549.16;;;13.54;68.25
70921;BME280;58572;48.110;19.838;2023-04-25T02:20:32;96546.47;;;13.66;68.18
70921;BME280;58572;48.110;19.838;2023-04-25T02:22:59;96540.38;;;13.81;67.51
70921;BME280;58572;48.110;19.838;2023-04-25T02:25:27;96552.28;;;13.64;68.02
70921;BME280;58572;48.110;19.838;2023-04-25T02:27:54;96539.69;;;13.72;67.35
70921;BME280;58572;48.110;19.838;2023-04-25T02:30:23;96540.47;;;13.52;67.80
70921;BME280;58572;48.110;19.838;2023-04-25T02:32:50;96547.72;;;12.47;74.52
70921;BME280;58572;48.110;19.838;2023-04-25T02:35:17;96550.25;;;12.23;75.13
70921;BME280;58572;48.110;19.838;2023-04-25T02:37:44;96534.75;;;13.03;70.87
70921;BME280;58572;48.110;19.838;2023-04-25T02:40:11;96495.66;;;13.20;68.56
70921;BME280;58572;48.110;19.838;2023-04-25T02:42:38;96494.09;;;13.10;68.92
70921;BME280;58572;48.110;19.838;2023-04-25T02:45:06;96537.66;;;13.27;71.11
70921;BME280;58572;48.110;19.838;2023-04-25T02:47:35;96539.00;;;12.92;70.37
70921;BME280;58572;48.110;19.838;2023-04-25T02:50:05;96531.78;;;13.17;69.06
70921;BME280;58572;48.110;19.838;2023-04-25T02:52:32;96535.16;;;12.93;70.53
70921;BME280;58572;48.110;19.838;2023-04-25T02:54:59;96534.88;;;13.06;69.71
70921;BME280;58572;48.110;19.838;2023-04-25T02:57:26;96535.69;;;13.49;68.00
70921;BME280;58572;48.110;19.838;2023-04-25T02:59:54;96541.72;;;11.86;75.74
70921;BME280;58572;48.110;19.838;2023-04-25T03:02:21;96539.53;;;12.56;71.80
70921;BME280;58572;48.110;19.838;2023-04-25T03:04:49;96526.25;;;13.25;69.30
70921;BME280;58572;48.110;19.838;2023-04-25T03:07:17;96528.91;;;13.55;67.94
70921;BME280;58572;48.110;19.838;2023-04-25T03:09:44;96528.50;;;13.44;67.92
70921;BME280;58572;48.110;19.838;2023-04-25T03:12:11;96524.16;;;12.81;70.72
70921;BME280;58572;48.110;19.838;2023-04-25T03:14:38;96550.72;;;13.13;69.42
70921;BME280;58572;48.110;19.838;2023-04-25T03:17:05;96537.72;;;10.80;81.00
70921;BME280;58572;48.110;19.838;2023-04-25T03:19:32;96522.47;;;12.67;71.43
70921;BME280;58572;48.110;19.838;2023-04-25T03:22:01;96516.31;;;13.41;69.23
70921;BME280;58572;48.110;19.838;2023-04-25T03:24:28;96512.72;;;13.50;67.76
70921;BME280;58572;48.110;19.838;2023-04-25T03:26:55;96469.09;;;12.87;68.40
70921;BME280;58572;48.110;19.838;2023-04-25T03:29:22;96524.19;;;13.22;68.36
70921;BME280;58572;48.110;19.838;2023-04-25T03:31:51;96514.69;;;13.28;69.10
70921;BME280;58572;48.110;19.838;2023-04-25T03:34:19;96532.88;;;11.98;74.79
70921;BME280;58572;48.110;19.838;2023-04-25T03:36:49;96519.19;;;13.03;70.03
70921;BME280;58572;48.110;19.838;2023-04-25T03:39:18;96521.59;;;13.26;68.18
70921;BME280;58572;48.110;19.838;2023-04-25T03:41:45;96517.72;;;12.85;70.26
70921;BME280;58572;48.110;19.838;2023-04-25T03:44:12;96515.88;;;13.19;68.10
70921;BME280;58572;48.110;19.838;2023-04-25T03:46:39;96511.06;;;13.16;68.14
70921;BME280;58572;48.110;19.838;2023-04-25T03:49:07;96514.69;;;13.28;68.58
70921;BME280;58572;48.110;19.838;2023-04-25T03:51:34;96515.81;;;13.27;68.68
70921;BME280;58572;48.110;19.838;2023-04-25T03:54:01;96515.53;;;13.20;67.85
70921;BME280;58572;48.110;19.838;2023-04-25T03:56:30;96522.84;;;12.87;70.16
70921;BME280;58572;48.110;19.838;2023-04-25T03:58:57;96518.78;;;13.14;68.83
70921;BME280;58572;48.110;19.838;2023-04-25T04:01:24;96512.81;;;13.20;68.99
70921;BME280;58572;48.110;19.838;2023-04-25T04:03:52;96535.19;;;11.52;75.26
70921;BME280;58572;48.110;19.838;2023-04-25T04:06:19;96527.47;;;12.65;71.15
70921;BME280;58572;48.110;19.838;2023-04-25T04:08:47;96523.28;;;13.18;68.08
70921;BME280;58572;48.110;19.838;2023-04-25T04:11:14;96520.03;;;13.16;68.36
70921;BME280;58572;48.110;19.838;2023-04-25T04:13:42;96518.94;;;13.17;68.54
70921;BME280;58572;48.110;19.838;2023-04-25T04:16:10;96519.22;;;13.24;67.93
70921;BME280;58572;48.110;19.838;2023-04-25T04:18:37;96521.53;;;13.34;67.50
70921;BME280;58572;48.110;19.838;2023-04-25T04:21:04;96521.47;;;13.22;67.63
70921;BME280;58572;48.110;19.838;2023-04-25T04:23:31;96521.34;;;12.68;69.87
70921;BME280;58572;48.110;19.838;2023-04-25T04:25:59;96519.97;;;13.04;68.17
70921;BME280;58572;48.110;19.838;2023-04-25T04:28:27;96522.78;;;13.16;67.84
70921;BME280;58572;48.110;19.838;2023-04-25T04:30:55;96518.59;;;13.39;67.49
70921;BME280;58572;48.110;19.838;2023-04-25T04:33:23;96523.31;;;13.30;68.11
70921;BME280;58572;48.110;19.838;2023-04-25T04:35:50;96478.66;;;12.72;69.41
70921;BME280;58572;48.110;19.838;2023-04-25T04:38:19;96524.25;;;13.34;68.00
70921;BME280;58572;48.110;19.838;2023-04-25T04:40:47;96521.38;;;13.10;69.38
70921;BME280;58572;48.110;19.838;2023-04-25T04:43:14;96528.94;;;12.84;69.08
70921;BME280;58572;48.110;19.838;2023-04-25T04:45:42;96532.63;;;11.04;77.06
70921;BME280;58572;48.110;19.838;2023-04-25T04:48:11;96527.50;;;12.57;71.15
70921;BME280;58572;48.110;19.838;2023-04-25T04:50:40;96526.34;;;12.28;71.66
70921;BME280;58572;48.110;19.838;2023-04-25T04:53:07;96528.13;;;12.24;73.02
70921;BME280;58572;48.110;19.838;2023-04-25T04:55:34;96529.41;;;12.86;69.42
70921;BME280;58572;48.110;19.838;2023-04-25T04:58:01;96523.88;;;13.24;67.81
70921;BME280;58572;48.110;19.838;2023-04-25T05:00:28;96524.66;;;13.24;67.24
70921;BME280;58572;48.110;19.838;2023-04-25T05:02:56;96519.97;;;13.04;68.64
70921;BME280;58572;48.110;19.838;2023-04-25T05:05:25;96530.44;;;13.02;67.97
70921;BME280;58572;48.110;19.838;2023-04-25T05:07:52;96535.56;;;12.44;71.48
70921;BME280;58572;48.110;19.838;2023-04-25T05:10:20;96438.56;;;10.77;75.49
70921;BME280;58572;48.110;19.838;2023-04-25T05:12:47;96536.28;;;12.24;72.99
70921;BME280;58572;48.110;19.838;2023-04-25T05:15:14;96532.81;;;12.83;69.74
70921;BME280;58572;48.110;19.838;2023-04-25T05:17:41;96534.59;;;12.78;69.59
70921;BME280;58572;48.110;19.838;2023-04-25T05:20:09;96535.53;;;12.83;69.27
70921;BME280;58572;48.110;19.838;2023-04-25T05:22:38;96536.06;;;12.38;71.26
70921;BME280;58572;48.110;19.838;2023-04-25T05:25:08;96533.66;;;11.98;72.74
70921;BME280;58572;48.110;19.838;2023-04-25T05:27:35;96537.16;;;12.45;69.66
70921;BME280;58572;48.110;19.838;2023-04-25T05:30:03;96531.13;;;12.69;69.41
70921;BME280;58572;48.110;19.838;2023-04-25T05:32:31;96530.69;;;12.88;68.89
70921;BME280;58572;48.110;19.838;2023-04-25T05:34:59;96538.88;;;12.21;71.29
70921;BME280;58572;48.110;19.838;2023-04-25T05:37:26;96531.69;;;12.84;68.30
70921;BME280;58572;48.110;19.838;2023-04-25T05:39:55;96488.06;;;12.54;67.89
70921;BME280;58572;48.110;19.838;2023-04-25T05:42:22;96538.53;;;12.90;68.51
70921;BME280;58572;48.110;19.838;2023-04-25T05:44:49;96532.50;;;13.05;68.20
70921;BME280;58572;48.110;19.838;2023-04-25T05:47:16;96529.75;;;12.84;68.53
70921;BME280;58572;48.110;19.838;2023-04-25T05:49:43;96544.50;;;12.15;71.14
70921;BME280;58572;48.110;19.838;2023-04-25T05:52:10;96512.31;;;12.47;70.52
70921;BME280;58572;48.110;19.838;2023-04-25T05:54:38;96544.53;;;12.45;70.58
70921;BME280;58572;48.110;19.838;2023-04-25T05:57:06;96511.22;;;12.39;69.40
70921;BME280;58572;48.110;19.838;2023-04-25T05:59:33;96537.19;;;12.37;70.78
70921;BME280;58572;48.110;19.838;2023-04-25T06:02:01;96540.34;;;12.47;70.04
70921;BME280;58572;48.110;19.838;2023-04-25T06:04:28;96549.28;;;11.46;74.38
70921;BME280;58572;48.110;19.838;2023-04-25T06:06:55;96545.84;;;12.39;70.22
70921;BME280;58572;48.110;19.838;2023-04-25T06:09:23;96541.44;;;12.64;69.26
70921;BME280;58572;48.110;19.838;2023-04-25T06:11:50;96541.25;;;12.31;70.47
70921;BME280;58572;48.110;19.838;2023-04-25T06:14:18;96521.91;;;12.53;68.65
70921;BME280;58572;48.110;19.838;2023-04-25T06:16:45;96535.81;;;12.90;68.51
70921;BME280;58572;48.110;19.838;2023-04-25T06:19:12;96549.78;;;12.59;68.75
70921;BME280;58572;48.110;19.838;2023-04-25T06:21:41;96557.34;;;12.06;71.30
70921;BME280;58572;48.110;19.838;2023-04-25T06:24:08;96552.06;;;12.48;69.37
70921;BME280;58572;48.110;19.838;2023-04-25T06:26:35;96558.16;;;12.45;69.46
70921;BME280;58572;48.110;19.838;2023-04-25T06:29:02;96547.41;;;12.57;68.52
70921;BME280;58572;48.110;19.838;2023-04-25T06:31:31;96525.38;;;11.86;71.49
70921;BME280;58572;48.110;19.838;2023-04-25T06:33:59;96465.41;;;12.03;68.50
70921;BME280;58572;48.110;19.838;2023-04-25T06:36:26;96542.00;;;12.49;69.56
70921;BME280;58572;48.110;19.838;2023-04-25T06:38:53;96482.59;;;12.25;68.67
70921;BME280;58572;48.110;19.838;2023-04-25T06:41:21;96543.78;;;11.72;72.49
70921;BME280;58572;48.110;19.838;2023-04-25T06:43:48;96547.25;;;12.45;69.42
70921;BME280;58572;48.110;19.838;2023-04-25T06:46:15;96543.81;;;12.65;68.51
70921;BME280;58572;48.110;19.838;2023-04-25T06:48:44;96545.97;;;12.51;68.82
70921;BME280;58572;48.110;19.838;2023-04-25T06:51:11;96551.78;;;12.41;69.12
70921;BME280;58572;48.110;19.838;2023-04-25T06:53:39;96553.66;;;12.58;69.66
70921;BME280;58572;48.110;19.838;2023-04-25T06:56:06;96556.41;;;12.49;70.07
70921;BME280;58572;48.110;19.838;2023-04-25T06:58:33;96549.47;;;12.60;68.08
70921;BME280;58572;48.110;19.838;2023-04-25T07:01:01;96557.97;;;12.59;68.52
70921;BME280;58572;48.110;19.838;2023-04-25T07:03:28;96531.50;;;12.59;68.47
70921;BME280;58572;48.110;19.838;2023-04-25T07:05:57;96551.78;;;12.41;69.65
70921;BME280;58572;48.110;19.838;2023-04-25T07:08:24;96536.38;;;11.98;70.37
70921;BME280;58572;48.110;19.838;2023-04-25T07:10:51;96527.31;;;11.86;70.57
70921;BME280;58572;48.110;19.838;2023-04-25T07:13:18;96555.47;;;11.98;71.63
70921;BME280;58572;48.110;19.838;2023-04-25T07:15:46;96554.91;;;12.22;70.35
70921;BME280;58572;48.110;19.838;2023-04-25T07:18:14;96551.66;;;12.29;70.53
70921;BME280;58572;48.110;19.838;2023-04-25T07:20:41;96559.00;;;11.90;72.52
70921;BME280;58572;48.110;19.838;2023-04-25T07:23:10;96551.94;;;12.36;70.28
70921;BME280;58572;48.110;19.838;2023-04-25T07:25:37;96400.56;;;11.41;70.03
70921;BME280;58572;48.110;19.838;2023-04-25T07:28:04;96544.19;;;12.85;67.53
70921;BME280;58572;48.110;19.838;2023-04-25T07:30:31;96525.41;;;12.24;69.63
70921;BME280;58572;48.110;19.838;2023-04-25T07:33:00;96553.09;;;12.35;70.28
70921;BME280;58572;48.110;19.838;2023-04-25T07:35:27;96553.84;;;12.53;69.84
70921;BME280;58572;48.110;19.838;2023-04-25T07:37:54;96557.06;;;11.99;71.99
70921;BME280;58572;48.110;19.838;2023-04-25T07:40:23;96560.97;;;12.28;69.77
70921;BME280;58572;48.110;19.838;2023-04-25T07:42:50;96562.38;;;12.34;69.69
70921;BME280;58572;48.110;19.838;2023-04-25T07:45:17;96563.16;;;12.43;69.91
70921;BME280;58572;48.110;19.838;2023-04-25T07:47:44;96564.63;;;12.32;69.55
70921;BME280;58572;48.110;19.838;2023-04-25T07:50:11;96565.06;;;12.42;69.76
70921;BME280;58572;48.110;19.838;2023-04-25T07:52:38;96569.91;;;12.37;69.22
70921;BME280;58572;48.110;19.838;2023-04-25T07:55:06;96547.13;;;12.03;71.23
70921;BME280;58572;48.110;19.838;2023-04-25T07:57:34;96569.84;;;12.07;72.03
70921;BME280;58572;48.110;19.838;2023-04-25T08:00:03;96560.06;;;12.15;70.03
70921;BME280;58572;48.110;19.838;2023-04-25T08:02:34;96565.75;;;12.31;69.51
70921;BME280;58572;48.110;19.838;2023-04-25T08:05:02;96551.66;;;12.29;70.06
70921;BME280;58572;48.110;19.838;2023-04-25T08:07:29;96410.19;;;11.30;70.31
70921;BME280;58572;48.110;19.838;2023-04-25T08:09:56;96564.78;;;12.35;70.21
70921;BME280;58572;48.110;19.838;2023-04-25T08:12:23;96571.84;;;12.36;70.58
70921;BME280;58572;48.110;19.838;2023-04-25T08:14:53;96464.69;;;11.68;69.86
70921;BME280;58572;48.110;19.838;2023-04-25T08:17:21;96571.31;;;12.43;69.96
70921;BME280;58572;48.110;19.838;2023-04-25T08:19:48;96576.94;;;12.38;69.59
70921;BME280;58572;48.110;19.838;2023-04-25T08:22:15;96577.97;;;12.25;70.31
70921;BME280;58572;48.110;19.838;2023-04-25T08:24:43;96570.16;;;12.14;69.97
70921;BME280;58572;48.110;19.838;2023-04-25T08:27:10;96583.81;;;12.44;68.96
70921;BME280;58572;48.110;19.838;2023-04-25T08:29:37;96592.47;;;12.46;69.29
70921;BME280;58572;48.110;19.838;2023-04-25T08:32:06;96593.63;;;12.36;71.20
70921;BME280;58572;48.110;19.838;2023-04-25T08:34:33;96592.84;;;12.36;69.01
70921;BME280;58572;48.110;19.838;2023-04-25T08:37:02;96598.72;;;12.46;69.52
70921;BME280;58572;48.110;19.838;2023-04-25T08:39:29;96598.69;;;12.64;69.19
70921;BME280;58572;48.110;19.838;2023-04-25T08:41:56;96605.69;;;12.27;70.78
70921;BME280;58572;48.110;19.838;2023-04-25T08:44:24;96612.75;;;12.28;69.71
70921;BME280;58572;48.110;19.838;2023-04-25T08:46:52;96401.94;;;10.83;69.85
70921;BME280;58572;48.110;19.838;2023-04-25T08:49:21;96622.84;;;12.27;69.72
70921;BME280;58572;48.110;19.838;2023-04-25T08:51:49;96622.09;;;12.09;70.70
70921;BME280;58572;48.110;19.838;2023-04-25T08:54:19;96630.25;;;12.18;70.44
70921;BME280;58572;48.110;19.838;2023-04-25T08:56:52;96635.22;;;12.07;71.10
70921;BME280;58572;48.110;19.838;2023-04-25T08:59:19;96629.44;;;12.18;70.38
70921;BME280;58572;48.110;19.838;2023-04-25T09:01:47;96644.69;;;12.10;72.40
70921;BME280;58572;48.110;19.838;2023-04-25T09:04:17;96648.34;;;12.14;70.46
70921;BME280;58572;48.110;19.838;2023-04-25T09:06:48;96581.94;;;11.63;70.73
70921;BME280;58572;48.110;19.838;2023-04-25T09:09:16;96658.63;;;12.08;71.08
70921;BME280;58572;48.110;19.838;2023-04-25T09:11:43;96688.44;;;11.96;71.56
70921;BME280;58572;48.110;19.838;2023-04-25T09:14:12;96660.56;;;11.82;71.28
70921;BME280;58572;48.110;19.838;2023-04-25T09:16:58;96660.53;;;12.17;69.87
70921;BME280;58572;48.110;19.838;2023-04-25T09:19:27;96672.72;;;12.10;70.60
70921;BME280;58572;48.110;19.838;2023-04-25T09:21:56;96624.19;;;11.95;69.50
70921;BME280;58572;48.110;19.838;2023-04-25T09:24:31;96669.16;;;12.27;69.11
70921;BME280;58572;48.110;19.838;2023-04-25T09:26:59;96672.72;;;12.10;70.38
70921;BME280;58572;48.110;19.838;2023-04-25T09:29:29;96679.44;;;12.22;69.35
70921;BME280;58572;48.110;19.838;2023-04-25T09:32:13;96684.56;;;12.14;69.78
70921;BME280;58572;48.110;19.838;2023-04-25T09:34:41;96684.13;;;11.78;71.32
70921;BME280;58572;48.110;19.838;2023-04-25T09:37:11;96675.19;;;11.12;74.37
70921;BME280;58572;48.110;19.838;2023-04-25T09:39:39;96682.34;;;11.82;70.23
70921;BME280;58572;48.110;19.838;2023-04-25T09:42:06;96686.66;;;11.74;71.71
70921;BME280;58572;48.110;19.838;2023-04-25T09:44:35;96687.44;;;11.75;71.40
70921;BME280;58572;48.110;19.838;2023-04-25T09:47:02;96695.97;;;11.82;71.79
70921;BME280;58572;48.110;19.838;2023-04-25T09:49:30;96606.75;;;11.44;70.28
70921;BME280;58572;48.110;19.838;2023-04-25T09:51:57;96686.81;;;12.12;68.97
70921;BME280;58572;48.110;19.838;2023-04-25T09:54:26;96694.19;;;12.03;69.58
70921;BME280;58572;48.110;19.838;2023-04-25T09:56:53;96692.72;;;11.71;72.01
70921;BME280;58572;48.110;19.838;2023-04-25T09:59:21;96692.13;;;11.92;69.59
70921;BME280;58572;48.110;19.838;2023-04-25T10:01:53;96690.66;;;11.60;70.84
70921;BME280;58572;48.110;19.838;2023-04-25T10:04:25;96701.38;;;11.73;70.30
70921;BME280;58572;48.110;19.838;2023-04-25T10:06:55;96700.78;;;12.02;69.14
70921;BME280;58572;48.110;19.838;2023-04-25T10:09:27;96699.19;;;11.84;69.71
70921;BME280;58572;48.110;19.838;2023-04-25T10:11:58;96705.09;;;11.86;70.58
70921;BME280;58572;48.110;19.838;2023-04-25T10:14:26;96703.66;;;11.89;70.28
70921;BME280;58572;48.110;19.838;2023-04-25T10:16:54;96698.53;;;11.78;70.50
70921;BME280;58572;48.110;19.838;2023-04-25T10:19:23;96703.94;;;11.70;70.06
70921;BME280;58572;48.110;19.838;2023-04-25T10:21:52;96599.47;;;10.88;70.60
70921;BME280;58572;48.110;19.838;2023-04-25T10:24:21;96702.81;;;11.71;70.94
70921;BME280;58572;48.110;19.838;2023-04-25T10:26:51;96701.25;;;11.87;70.35
70921;BME280;58572;48.110;19.838;2023-04-25T10:29:22;96708.31;;;11.88;69.52
70921;BME280;58572;48.110;19.838;2023-04-25T10:31:50;96699.94;;;11.76;72.08
70921;BME280;58572;48.110;19.838;2023-04-25T10:34:17;96709.72;;;11.68;70.22
70921;BME280;58572;48.110;19.838;2023-04-25T10:36:49;96685.38;;;11.63;71.23
70921;BME280;58572;48.110;19.838;2023-04-25T10:39:22;96704.19;;;11.34;71.33
70921;BME280;58572;48.110;19.838;2023-04-25T10:41:56;96714.47;;;11.45;71.17
70921;BME280;58572;48.110;19.838;2023-04-25T10:44:26;96706.19;;;11.68;70.95
70921;BME280;58572;48.110;19.838;2023-04-25T10:46:55;96586.00;;;10.74;70.42
70921;BME280;58572;48.110;19.838;2023-04-25T10:49:31;96714.69;;;11.75;70.45
70921;BME280;58572;48.110;19.838;2023-04-25T10:52:19;96714.19;;;11.73;69.77
70921;BME280;58572;48.110;19.838;2023-04-25T10:54:51;96704.94;;;11.91;69.13
70921;BME280;58572;48.110;19.838;2023-04-25T10:57:36;96713.31;;;11.29;71.99
70921;BME280;58572;48.110;19.838;2023-04-25T11:00:12;96714.59;;;11.40;72.59
70921;BME280;58572;48.110;19.838;2023-04-25T11:02:47;96716.81;;;11.30;71.21
70921;BME280;58572;48.110;19.838;2023-04-25T11:05:26;96673.91;;;11.18;70.75
70921;BME280;58572;48.110;19.838;2023-04-25T11:07:57;96707.06;;;11.37;71.38
70921;BME280;58572;48.110;19.838;2023-04-25T11:10:25;96705.31;;;11.41;71.94
70921;BME280;58572;48.110;19.838;2023-04-25T11:12:59;96703.13;;;11.61;70.31
70921;BME280;58572;48.110;19.838;2023-04-25T11:15:31;96702.34;;;11.60;71.40
70921;BME280;58572;48.110;19.838;2023-04-25T11:17:58;96694.84;;;11.83;70.29
70921;BME280;58572;48.110;19.838;2023-04-25T11:20:26;96700.19;;;11.40;72.01
70921;BME280;58572;48.110;19.838;2023-04-25T11:22:57;96698.81;;;11.51;70.91
70921;BME280;58572;48.110;19.838;2023-04-25T11:25:25;96693.53;;;11.72;70.24
70921;BME280;58572;48.110;19.838;2023-04-25T11:27:53;96645.78;;;12.18;67.47
70921;BME280;58572;48.110;19.838;2023-04-25T11:30:24;96695.16;;;12.07;68.47
70921;BME280;58572;48.110;19.838;2023-04-25T11:32:52;96694.53;;;11.10;73.34
70921;BME280;58572;48.110;19.838;2023-04-25T11:35:19;96644.22;;;11.65;69.45
70921;BME280;58572;48.110;19.838;2023-04-25T11:37:48;96699.94;;;12.28;68.45
70921;BME280;58572;48.110;19.838;2023-04-25T11:40:15;96713.41;;;12.33;68.80
70921;BME280;58572;48.110;19.838;2023-04-25T11:42:45;96711.78;;;12.49;68.48
70921;BME280;58572;48.110;19.838;2023-04-25T11:45:13;96712.28;;;12.17;70.38
70921;BME280;58572;48.110;19.838;2023-04-25T11:47:42;96712.69;;;12.70;67.11
70921;BME280;58572;48.110;19.838;2023-04-25T11:50:11;96712.41;;;10.94;74.53
70921;BME280;58572;48.110;19.838;2023-04-25T11:52:41;96703.97;;;12.22;69.83
70921;BME280;58572;48.110;19.838;2023-04-25T11:55:10;96704.22;;;12.46;68.53
70921;BME280;58572;48.110;19.838;2023-04-25T11:57:40;96695.69;;;12.73;70.46
70921;BME280;58572;48.110;19.838;2023-04-25T12:00:10;96692.34;;;13.06;67.66
70921;BME280;58572;48.110;19.838;2023-04-25T12:02:42;96700.34;;;13.11;67.49
70921;BME280;58572;48.110;19.838;2023-04-25T12:05:10;96596.28;;;11.03;73.45
70921;BME280;58572;48.110;19.838;2023-04-25T12:07:37;96693.78;;;13.03;68.51
70921;BME280;58572;48.110;19.838;2023-04-25T12:10:05;96696.97;;;13.43;66.06
70921;BME280;58572;48.110;19.838;2023-04-25T12:12:33;96699.41;;;12.60;67.56
70921;BME280;58572;48.110;19.838;2023-04-25T12:15:11;96698.97;;;12.32;67.67
70921;BME280;58572;48.110;19.838;2023-04-25T12:17:44;96707.19;;;12.06;69.40
70921;BME280;58572;48.110;19.838;2023-04-25T12:20:13;96701.78;;;13.08;65.95
70921;BME280;58572;48.110;19.838;2023-04-25T12:22:41;96704.06;;;13.06;65.85
70921;BME280;58572;48.110;19.838;2023-04-25T12:25:12;96708.97;;;12.84;66.36
70921;BME280;58572;48.110;19.838;2023-04-25T12:27:40;96636.00;;;12.72;65.72
70921;BME280;58572;48.110;19.838;2023-04-25T12:30:08;96665.22;;;11.90;68.31
70921;BME280;58572;48.110;19.838;2023-04-25T12:32:36;96726.88;;;12.21;69.05
70921;BME280;58572;48.110;19.838;2023-04-25T12:35:05;96721.84;;;12.66;67.40
70921;BME280;58572;48.110;19.838;2023-04-25T12:37:33;96716.63;;;12.90;65.81
70921;BME280;58572;48.110;19.838;2023-04-25T12:40:00;96714.63;;;13.17;65.67
70921;BME280;58572;48.110;19.838;2023-04-25T12:42:29;96712.75;;;13.00;65.55
70921;BME280;58572;48.110;19.838;2023-04-25T12:44:56;96719.03;;;12.92;66.78
70921;BME280;58572;48.110;19.838;2023-04-25T12:47:23;96717.13;;;13.30;65.84
70921;BME280;58572;48.110;19.838;2023-04-25T12:49:51;96680.00;;;13.00;65.68
70921;BME280;58572;48.110;19.838;2023-04-25T12:52:19;96726.38;;;12.53;68.83
70921;BME280;58572;48.110;19.838;2023-04-25T12:54:46;96727.75;;;12.76;67.14